Time;durP1;ratioP1;P1;durP2;ratioP2;P2;SDS_P1;SDS_P2;PMS_P1;PMS_P2;Temp;Humidity;BMP_temperature;BMP_pressure;BME280_temperature;BME280_humidity;BME280_pressure;Samples;Min_cycle;Max_cycle;Signal;HPM_P1;HPM_P2
2024/01/16 00:02:22;;;;;;;12.97;5.67;;;-0.30;1.00;;;;;;5014408;28;20171;-73
2024/01/16 00:04:48;;;;;;;9.73;5.60;;;-0.60;1.00;;;;;;5035591;28;20474;-73
2024/01/16 00:07:13;;;;;;;9.53;5.27;;;-0.90;1.00;;;;;;5015512;28;20200;-75
2024/01/16 00:09:39;;;;;;;9.87;5.50;;;-0.60;1.00;;;;;;5015584;28;20738;-71
2024/01/16 00:12:05;;;;;;;10.73;5.67;;;-0.70;1.00;;;;;;5044461;28;20184;-73
2024/01/16 00:14:34;;;;;;;12.97;5.60;;;-0.60;1.00;;;;;;5040766;28;20181;-73
2024/01/16 00:16:59;;;;;;;13.57;5.50;;;-0.20;1.00;;;;;;5013146;28;20468;-73
2024/01/16 00:19:25;;;;;;;12.50;5.20;;;-0.70;1.00;;;;;;5018656;28;20482;-74
2024/01/16 00:21:51;;;;;;;11.20;5.27;;;-0.70;1.00;;;;;;5029604;28;20663;-75
2024/01/16 00:24:17;;;;;;;11.23;5.60;;;-0.60;1.00;;;;;;5024349;28;20174;-73
2024/01/16 00:26:43;;;;;;;10.37;6.13;;;;;;;;;;5016677;28;21032;-77
2024/01/16 00:29:12;;;;;;;8.90;5.10;;;-0.40;1.00;;;;;;5027228;28;20202;-74
2024/01/16 00:31:38;;;;;;;10.03;5.33;;;-0.20;1.00;;;;;;5027847;28;20467;-75
2024/01/16 00:34:04;;;;;;;12.83;6.40;;;-0.50;1.00;;;;;;5042398;28;20944;-74
2024/01/16 00:36:30;;;;;;;9.77;5.10;;;-0.30;1.00;;;;;;5044986;28;20483;-74
2024/01/16 00:38:56;;;;;;;10.03;6.00;;;-0.70;1.00;;;;;;5032255;28;20198;-74
2024/01/16 00:41:22;;;;;;;10.17;5.50;;;-0.30;1.00;;;;;;5026102;28;20509;-76
2024/01/16 00:43:47;;;;;;;9.20;5.40;;;-0.40;1.00;;;;;;5030987;28;20439;-74
2024/01/16 00:46:13;;;;;;;7.00;5.20;;;-0.60;1.00;;;;;;5037983;28;20622;-73
2024/01/16 00:48:39;;;;;;;12.83;5.83;;;-0.80;1.00;;;;;;5043310;28;20855;-74
2024/01/16 00:51:05;;;;;;;12.73;5.43;;;-1.10;1.00;;;;;;5033586;28;20408;-73
2024/01/16 00:53:30;;;;;;;11.80;6.37;;;-0.40;1.00;;;;;;5052138;28;20177;-73
2024/01/16 00:55:56;;;;;;;14.23;6.47;;;-0.70;1.00;;;;;;5033966;28;20217;-74
2024/01/16 00:58:24;;;;;;;13.73;5.70;;;-0.80;1.00;;;;;;5030801;28;20187;-71
2024/01/16 01:00:50;;;;;;;11.70;5.60;;;-0.90;1.00;;;;;;5020945;28;20214;-78
2024/01/16 01:03:16;;;;;;;11.20;5.83;;;-1.10;1.00;;;;;;5020158;28;20816;-73
2024/01/16 01:05:41;;;;;;;13.00;5.70;;;-0.70;1.00;;;;;;5035848;28;20182;-72
2024/01/16 01:08:07;;;;;;;11.57;5.90;;;-0.70;1.00;;;;;;5026540;28;20263;-74
2024/01/16 01:10:33;;;;;;;13.20;6.60;;;-1.10;1.00;;;;;;5026551;28;20229;-76
2024/01/16 01:12:58;;;;;;;13.60;6.00;;;-0.80;1.00;;;;;;5018512;28;20179;-75
2024/01/16 01:15:24;;;;;;;11.13;5.63;;;-0.90;1.00;;;;;;5031712;28;20804;-73
2024/01/16 01:17:50;;;;;;;9.70;5.80;;;-1.20;1.00;;;;;;5025905;28;20250;-74
2024/01/16 01:20:19;;;;;;;9.57;5.77;;;-1.10;1.00;;;;;;5025378;28;20203;-76
2024/01/16 01:22:45;;;;;;;12.07;6.37;;;-0.90;1.00;;;;;;5023209;28;20760;-76
2024/01/16 01:25:11;;;;;;;11.60;5.73;;;-1.10;1.00;;;;;;5034479;28;20431;-73
2024/01/16 01:27:37;;;;;;;13.97;6.23;;;-1.40;1.00;;;;;;5017872;28;20436;-78
2024/01/16 01:30:03;;;;;;;12.60;5.60;;;-1.30;1.00;;;;;;5027854;28;21252;-73
2024/01/16 01:32:29;;;;;;;10.07;5.20;;;-1.40;1.00;;;;;;5021491;28;20432;-73
2024/01/16 01:34:54;;;;;;;14.47;5.50;;;-1.80;1.00;;;;;;5029985;28;20786;-72
2024/01/16 01:37:20;;;;;;;8.80;5.57;;;-1.40;1.00;;;;;;5030999;28;20285;-73
2024/01/16 01:39:45;;;;;;;6.97;4.47;;;-1.10;1.00;;;;;;5017899;28;20272;-77
2024/01/16 01:42:11;;;;;;;13.37;5.13;;;-3.20;1.00;;;;;;5029038;28;20375;-76
2024/01/16 01:44:37;;;;;;;10.77;5.50;;;-1.20;1.00;;;;;;5029246;28;20181;-74
2024/01/16 01:47:03;;;;;;;9.27;5.77;;;-0.80;1.00;;;;;;5028359;28;20171;-75
2024/01/16 01:49:30;;;;;;;10.13;5.10;;;-1.00;1.00;;;;;;5029724;28;20213;-74
2024/01/16 01:51:56;;;;;;;9.10;5.60;;;-1.20;1.00;;;;;;5023712;28;20851;-73
2024/01/16 01:54:24;;;;;;;10.30;5.60;;;-1.10;1.00;;;;;;5024602;28;20443;-75
2024/01/16 01:56:50;;;;;;;15.37;6.30;;;-1.10;1.00;;;;;;5036416;28;20643;-74
2024/01/16 01:59:18;;;;;;;11.83;6.10;;;-1.00;1.00;;;;;;5024585;28;20460;-74
2024/01/16 02:01:46;;;;;;;27.93;10.17;;;-0.70;1.00;;;;;;5014903;28;20417;-74
2024/01/16 02:04:15;;;;;;;18.10;6.90;;;-0.70;1.00;;;;;;5034126;28;20507;-73
2024/01/16 02:06:42;;;;;;;11.43;5.83;;;-0.70;1.00;;;;;;5017557;28;20458;-73
2024/01/16 02:09:08;;;;;;;13.57;6.07;;;-1.10;1.00;;;;;;5031791;28;20513;-74
2024/01/16 02:11:33;;;;;;;10.80;5.97;;;-0.80;1.00;;;;;;5032485;28;20910;-73
2024/01/16 02:13:59;;;;;;;11.90;5.63;;;-1.30;1.00;;;;;;5029548;28;20193;-73
2024/01/16 02:16:24;;;;;;;13.57;6.80;;;-0.90;1.00;;;;;;5034840;28;20198;-73
2024/01/16 02:18:51;;;;;;;9.77;5.47;;;-1.00;1.00;;;;;;5019838;28;20198;-73
2024/01/16 02:21:28;;;;;;;10.97;5.70;;;-1.00;1.00;;;;;;5032056;28;20215;-74
2024/01/16 02:23:54;;;;;;;10.33;5.43;;;-1.10;1.00;;;;;;5034008;28;20416;-77
2024/01/16 02:26:20;;;;;;;8.83;5.17;;;-1.20;1.00;;;;;;5017610;28;20473;-73
2024/01/16 02:28:46;;;;;;;9.50;5.00;;;-0.80;1.00;;;;;;5025168;28;20293;-73
2024/01/16 02:31:11;;;;;;;10.53;5.87;;;-1.20;1.00;;;;;;5035799;28;20495;-72
2024/01/16 02:33:37;;;;;;;9.80;5.80;;;-0.80;1.00;;;;;;5044396;28;20466;-73
2024/01/16 02:36:03;;;;;;;11.70;6.17;;;-1.30;1.00;;;;;;5016508;28;20190;-73
2024/01/16 02:38:29;;;;;;;14.80;5.80;;;-0.70;1.00;;;;;;5026027;28;20543;-73
2024/01/16 02:40:54;;;;;;;11.37;5.73;;;-1.10;1.00;;;;;;5026376;28;20443;-73
2024/01/16 02:43:20;;;;;;;13.67;5.90;;;-0.80;1.00;;;;;;5032177;28;20174;-73
2024/01/16 02:45:46;;;;;;;10.53;5.97;;;-1.10;1.00;;;;;;5037953;28;20217;-75
2024/01/16 02:48:11;;;;;;;16.70;6.20;;;-0.90;1.00;;;;;;5028574;28;20189;-73
2024/01/16 02:50:38;;;;;;;11.83;6.10;;;-1.20;1.00;;;;;;5029323;28;20335;-76
2024/01/16 02:53:03;;;;;;;10.50;5.67;;;-1.30;1.00;;;;;;5028377;28;20235;-74
2024/01/16 02:55:29;;;;;;;15.00;5.90;;;-0.90;1.00;;;;;;5029750;28;20965;-71
2024/01/16 02:57:54;;;;;;;9.83;5.90;;;-1.20;1.00;;;;;;5045613;28;20173;-73
2024/01/16 03:00:20;;;;;;;17.73;6.73;;;-1.20;1.00;;;;;;5022805;28;20202;-78
2024/01/16 03:02:46;;;;;;;10.93;5.80;;;-1.10;1.00;;;;;;5018595;28;20239;-76
2024/01/16 03:05:11;;;;;;;9.13;5.17;;;-1.70;1.00;;;;;;5028639;28;20174;-73
2024/01/16 03:07:37;;;;;;;8.07;5.27;;;-1.20;1.00;;;;;;5033648;28;20213;-76
2024/01/16 03:10:03;;;;;;;11.70;5.50;;;-1.20;1.00;;;;;;5018008;28;20217;-74
2024/01/16 03:12:28;;;;;;;10.27;5.57;;;-1.40;1.00;;;;;;5042081;28;20169;-73
2024/01/16 03:14:54;;;;;;;14.73;6.00;;;-1.60;1.00;;;;;;5035703;28;20424;-75
2024/01/16 03:17:20;;;;;;;14.17;5.57;;;-1.40;1.00;;;;;;5015074;28;20229;-73
2024/01/16 03:19:45;;;;;;;11.03;6.57;;;-1.10;1.00;;;;;;5027268;28;20233;-75
2024/01/16 03:22:11;;;;;;;12.17;6.33;;;-1.20;1.00;;;;;;5022654;28;20656;-74
2024/01/16 03:24:36;;;;;;;13.03;6.23;;;-1.00;1.00;;;;;;5033641;28;20255;-76
2024/01/16 03:27:02;;;;;;;13.03;6.33;;;-1.30;1.00;;;;;;5029331;28;20178;-73
2024/01/16 03:29:29;;;;;;;14.57;6.10;;;-1.30;1.00;;;;;;5039796;28;20285;-74
2024/01/16 03:31:55;;;;;;;14.87;6.73;;;-1.20;1.00;;;;;;5031704;28;21022;-77
2024/01/16 03:34:20;;;;;;;17.80;6.60;;;-1.40;1.00;;;;;;5020749;28;20182;-73
2024/01/16 03:36:45;;;;;;;14.20;6.40;;;-1.40;1.00;;;;;;5028387;28;20242;-75
2024/01/16 03:39:11;;;;;;;11.47;6.07;;;-1.10;1.00;;;;;;5018192;28;20190;-75
2024/01/16 03:41:37;;;;;;;10.60;6.10;;;-1.60;1.00;;;;;;5037221;28;20429;-75
2024/01/16 03:44:03;;;;;;;12.70;5.70;;;-1.60;1.00;;;;;;5038585;28;20404;-73
2024/01/16 03:46:29;;;;;;;11.43;6.20;;;-1.50;1.00;;;;;;5040461;28;20190;-73
2024/01/16 03:48:54;;;;;;;13.77;5.90;;;-1.70;1.00;;;;;;5031967;28;20197;-73
2024/01/16 03:51:20;;;;;;;10.47;4.90;;;-1.70;1.00;;;;;;5035903;28;20625;-75
2024/01/16 03:53:45;;;;;;;13.77;5.33;;;-1.80;1.00;;;;;;5029979;28;20533;-73
2024/01/16 03:56:11;;;;;;;11.07;6.53;;;-1.70;1.00;;;;;;5025642;28;20624;-72
2024/01/16 03:58:37;;;;;;;12.00;5.80;;;-1.70;1.00;;;;;;5024325;28;20190;-74
2024/01/16 04:01:03;;;;;;;10.47;5.80;;;-1.50;1.00;;;;;;5038691;28;20416;-73
2024/01/16 04:03:28;;;;;;;11.00;5.50;;;-1.50;1.00;;;;;;5023895;28;20174;-75
2024/01/16 04:05:54;;;;;;;12.13;5.93;;;-2.10;1.00;;;;;;5035675;28;20257;-73
2024/01/16 04:08:19;;;;;;;9.33;5.20;;;-1.60;1.00;;;;;;5038033;28;20197;-73
2024/01/16 04:10:45;;;;;;;17.20;6.37;;;-1.70;1.00;;;;;;5046187;28;20205;-72
2024/01/16 04:13:10;;;;;;;10.17;5.40;;;-2.10;1.00;;;;;;5015769;28;20274;-73
2024/01/16 04:15:39;;;;;;;9.83;5.43;;;-1.70;1.00;;;;;;5023763;28;20197;-72
2024/01/16 04:18:05;;;;;;;10.73;5.87;;;-1.70;1.00;;;;;;5039633;28;20231;-77
2024/01/16 04:20:31;;;;;;;9.63;5.30;;;-1.60;1.00;;;;;;5026513;28;20520;-75
2024/01/16 04:22:57;;;;;;;12.80;5.97;;;-1.70;1.00;;;;;;5036509;28;20183;-73
2024/01/16 04:25:23;;;;;;;11.13;5.47;;;-1.50;1.00;;;;;;5025495;28;20179;-75
2024/01/16 04:27:48;;;;;;;13.20;5.43;;;-1.30;1.00;;;;;;5024858;28;20438;-73
2024/01/16 04:30:14;;;;;;;14.13;6.17;;;-2.10;1.00;;;;;;5031793;28;20204;-73
2024/01/16 04:32:40;;;;;;;15.33;5.70;;;-1.50;1.00;;;;;;5012299;28;20187;-73
2024/01/16 04:35:05;;;;;;;10.90;5.27;;;-1.40;1.00;;;;;;5041930;28;20259;-73
2024/01/16 04:37:31;;;;;;;8.87;5.60;;;-1.70;1.00;;;;;;5022013;28;20262;-73
2024/01/16 04:39:58;;;;;;;10.13;6.17;;;-1.60;1.00;;;;;;5030814;28;20211;-72
2024/01/16 04:42:23;;;;;;;11.27;5.63;;;-1.80;1.00;;;;;;5025399;28;20177;-72
2024/01/16 04:44:49;;;;;;;11.97;6.47;;;-2.00;1.00;;;;;;5024957;28;20422;-73
2024/01/16 04:47:14;;;;;;;11.30;6.40;;;-1.30;1.00;;;;;;5046462;28;20364;-76
2024/01/16 04:49:42;;;;;;;11.10;6.63;;;-1.70;1.00;;;;;;5034747;28;20201;-75
2024/01/16 04:52:07;;;;;;;14.27;7.70;;;-1.80;1.00;;;;;;5042331;28;20651;-74
2024/01/16 04:54:33;;;;;;;21.23;8.50;;;-1.60;1.00;;;;;;5032913;28;20431;-76
2024/01/16 04:56:58;;;;;;;17.13;8.30;;;-1.60;1.00;;;;;;5011291;28;20280;-76
2024/01/16 04:59:24;;;;;;;18.67;8.77;;;-1.70;1.00;;;;;;5033277;28;20492;-73
2024/01/16 05:01:50;;;;;;;16.00;8.37;;;-1.80;1.00;;;;;;5045280;28;20822;-73
2024/01/16 05:04:15;;;;;;;17.90;9.40;;;-1.60;1.00;;;;;;5037892;28;20216;-73
2024/01/16 05:06:40;;;;;;;21.17;9.83;;;-1.80;1.00;;;;;;5051103;28;20675;-73
2024/01/16 05:09:09;;;;;;;14.20;7.40;;;-1.70;1.00;;;;;;5026352;28;20221;-76
2024/01/16 05:11:34;;;;;;;18.97;9.30;;;-1.80;1.00;;;;;;5018614;28;20421;-73
2024/01/16 05:14:00;;;;;;;16.17;8.97;;;-1.80;1.00;;;;;;5037466;28;20430;-73
2024/01/16 05:16:26;;;;;;;25.70;12.67;;;-1.90;1.00;;;;;;5034645;28;20870;-77
2024/01/16 05:18:52;;;;;;;14.90;7.80;;;-1.80;1.00;;;;;;5029416;28;20220;-76
2024/01/16 05:21:17;;;;;;;12.47;6.70;;;-1.70;1.00;;;;;;5017378;28;20997;-75
2024/01/16 05:23:43;;;;;;;17.87;8.00;;;-1.50;1.00;;;;;;5017933;28;20182;-73
2024/01/16 05:26:08;;;;;;;16.60;9.10;;;-2.00;1.00;;;;;;5021050;28;20561;-73
2024/01/16 05:28:34;;;;;;;27.60;12.57;;;-1.80;1.00;;;;;;5023163;28;20222;-79
2024/01/16 05:31:00;;;;;;;25.17;11.60;;;-2.30;1.00;;;;;;5026872;28;20186;-73
2024/01/16 05:33:25;;;;;;;24.37;11.33;;;-1.90;1.00;;;;;;5017953;28;20451;-75
2024/01/16 05:35:51;;;;;;;29.30;14.43;;;-2.10;1.00;;;;;;5022466;28;20467;-75
2024/01/16 05:38:16;;;;;;;23.73;10.90;;;-1.70;1.00;;;;;;5025220;28;20235;-77
2024/01/16 05:40:42;;;;;;;22.20;11.07;;;-2.40;1.00;;;;;;5022274;28;20206;-73
2024/01/16 05:43:07;;;;;;;14.93;8.47;;;-2.00;1.00;;;;;;5029378;28;20655;-73
2024/01/16 05:45:33;;;;;;;18.90;8.77;;;-2.20;1.00;;;;;;5029045;28;20648;-73
2024/01/16 05:47:58;;;;;;;15.53;8.23;;;-2.60;1.00;;;;;;5035445;28;20660;-74
2024/01/16 05:50:24;;;;;;;13.97;7.50;;;-2.10;1.00;;;;;;5022813;28;20261;-75
2024/01/16 05:52:49;;;;;;;13.13;7.03;;;-1.80;1.00;;;;;;5011666;28;20619;-75
2024/01/16 05:55:15;;;;;;;14.90;7.80;;;-2.10;1.00;;;;;;5037472;28;20170;-77
2024/01/16 05:57:43;;;;;;;13.30;6.43;;;-2.10;1.00;;;;;;5029339;28;20265;-76
2024/01/16 06:00:09;;;;;;;9.80;6.90;;;-2.20;1.00;;;;;;5016571;28;20688;-75
2024/01/16 06:02:35;;;;;;;11.93;6.87;;;-2.20;1.00;;;;;;5013354;28;20417;-74
2024/01/16 06:05:00;;;;;;;15.00;7.70;;;-2.10;1.00;;;;;;5029088;28;20410;-73
2024/01/16 06:07:26;;;;;;;13.33;7.40;;;-2.10;1.00;;;;;;5028594;28;20185;-76
2024/01/16 06:09:51;;;;;;;17.60;7.77;;;-2.10;1.00;;;;;;5021933;28;20230;-73
2024/01/16 06:12:17;;;;;;;12.13;7.50;;;-1.10;1.00;;;;;;5024284;28;20197;-73
2024/01/16 06:14:42;;;;;;;13.03;6.50;;;-2.30;1.00;;;;;;5011085;28;20260;-74
2024/01/16 06:17:08;;;;;;;12.53;6.90;;;-2.30;1.00;;;;;;5022171;28;20223;-76
2024/01/16 06:19:34;;;;;;;11.37;6.20;;;-1.90;1.00;;;;;;5026090;28;20734;-74
2024/01/16 06:21:59;;;;;;;12.63;6.20;;;-1.80;1.00;;;;;;5023834;28;20170;-75
2024/01/16 06:24:25;;;;;;;9.80;6.30;;;-1.80;1.00;;;;;;5028690;28;20175;-75
2024/01/16 06:26:51;;;;;;;31.60;6.23;;;-1.90;1.00;;;;;;5022004;28;20188;-75
2024/01/16 06:29:16;;;;;;;10.70;6.70;;;-1.90;1.00;;;;;;5020938;28;20204;-73
2024/01/16 06:31:42;;;;;;;13.70;6.17;;;-1.80;1.00;;;;;;5020107;28;20185;-72
2024/01/16 06:34:08;;;;;;;9.90;5.83;;;-1.80;1.00;;;;;;5033980;28;20643;-73
2024/01/16 06:36:34;;;;;;;10.70;6.33;;;-1.90;1.00;;;;;;5025066;28;20208;-73
2024/01/16 06:38:59;;;;;;;14.23;6.50;;;-1.80;1.00;;;;;;5042811;28;20445;-75
2024/01/16 06:41:25;;;;;;;10.13;5.90;;;-1.90;1.00;;;;;;5029068;28;20188;-73
2024/01/16 06:43:50;;;;;;;13.97;7.00;;;-2.00;1.00;;;;;;5030427;28;20177;-73
2024/01/16 06:46:15;;;;;;;22.63;6.57;;;-1.90;1.00;;;;;;5037959;28;20205;-73
2024/01/16 06:48:41;;;;;;;13.63;5.97;;;-2.00;1.00;;;;;;5021739;28;20181;-76
2024/01/16 06:51:07;;;;;;;17.33;7.80;;;-1.90;1.00;;;;;;5028746;28;20545;-73
2024/01/16 06:53:33;;;;;;;14.53;6.63;;;-1.80;1.00;;;;;;5030124;28;20475;-73
2024/01/16 06:55:58;;;;;;;17.93;6.87;;;-1.60;1.00;;;;;;5018933;28;20458;-73
2024/01/16 06:58:24;;;;;;;11.40;6.67;;;-1.60;1.00;;;;;;5044751;28;20243;-74
2024/01/16 07:00:49;;;;;;;14.50;6.63;;;-2.20;1.00;;;;;;5036987;28;20204;-73
2024/01/16 07:03:15;;;;;;;14.33;8.03;;;-2.20;1.00;;;;;;5019063;28;20181;-70
2024/01/16 07:05:41;;;;;;;14.63;7.67;;;-1.60;1.00;;;;;;5021855;28;20182;-74
2024/01/16 07:08:07;;;;;;;15.07;7.13;;;-1.70;1.00;;;;;;5019254;28;20181;-78
2024/01/16 07:10:33;;;;;;;19.17;7.37;;;-1.70;1.00;;;;;;5026168;28;20600;-73
2024/01/16 07:12:59;;;;;;;14.83;7.10;;;-2.20;1.00;;;;;;5014369;28;20420;-74
2024/01/16 07:15:25;;;;;;;21.33;8.30;;;-1.50;1.00;;;;;;5019185;28;20500;-78
2024/01/16 07:17:51;;;;;;;20.00;7.63;;;-1.60;1.00;;;;;;5021273;28;20178;-71
2024/01/16 07:20:16;;;;;;;12.53;6.90;;;-2.00;1.00;;;;;;5019263;28;20372;-72
2024/01/16 07:22:41;;;;;;;14.00;6.80;;;-1.70;1.00;;;;;;5019075;28;20580;-73
2024/01/16 07:25:08;;;;;;;13.53;7.93;;;-1.50;1.00;;;;;;5023583;28;20217;-71
2024/01/16 07:27:34;;;;;;;16.33;7.70;;;-1.30;1.00;;;;;;5027712;28;20663;-75
2024/01/16 07:30:00;;;;;;;16.70;9.27;;;-1.60;1.00;;;;;;5014275;28;20950;-75
2024/01/16 07:32:26;;;;;;;23.67;10.37;;;;;;;;;;5014315;28;20421;-73
2024/01/16 07:34:52;;;;;;;23.63;10.13;;;-1.70;1.00;;;;;;5024214;28;20785;-75
2024/01/16 07:37:18;;;;;;;19.30;9.90;;;-1.50;1.00;;;;;;5023210;28;20463;-75
2024/01/16 07:39:43;;;;;;;18.50;9.10;;;-1.70;1.00;;;;;;5022693;28;20962;-73
2024/01/16 07:42:09;;;;;;;19.17;9.20;;;-1.20;1.00;;;;;;5014446;28;20178;-73
2024/01/16 07:44:34;;;;;;;20.77;8.70;;;-1.10;1.00;;;;;;5026265;28;20553;-71
2024/01/16 07:47:00;;;;;;;21.80;9.40;;;-1.20;1.00;;;;;;5017266;28;20272;-76
2024/01/16 07:49:26;;;;;;;17.00;9.10;;;-1.00;1.00;;;;;;5010050;28;20191;-73
2024/01/16 07:51:51;;;;;;;14.60;7.43;;;-1.30;1.00;;;;;;5021193;28;20169;-72
2024/01/16 07:54:17;;;;;;;18.37;9.93;;;-1.20;1.00;;;;;;5024706;28;20878;-75
2024/01/16 07:56:43;;;;;;;18.60;9.33;;;-1.10;1.00;;;;;;5012230;28;20444;-78
2024/01/16 07:59:08;;;;;;;22.43;10.03;;;-1.10;1.00;;;;;;5022980;28;20209;-72
2024/01/16 08:01:34;;;;;;;15.77;9.53;;;-1.50;1.00;;;;;;5030248;28;20273;-73
2024/01/16 08:03:59;;;;;;;21.80;9.53;;;-1.00;1.00;;;;;;5031808;28;20182;-74
2024/01/16 08:06:26;;;;;;;21.43;11.20;;;-0.50;1.00;;;;;;5011732;28;20185;-72
2024/01/16 08:08:51;;;;;;;27.30;10.33;;;-1.00;1.00;;;;;;5016200;28;20197;-76
2024/01/16 08:11:18;;;;;;;21.20;10.73;;;-0.40;1.00;;;;;;5011050;28;20974;-74
2024/01/16 08:13:44;;;;;;;22.13;11.03;;;-0.30;1.00;;;;;;5021358;28;20264;-73
2024/01/16 08:16:09;;;;;;;19.07;9.57;;;-0.70;1.00;;;;;;5023721;28;20902;-79
2024/01/16 08:18:35;;;;;;;21.23;9.50;;;-0.70;1.00;;;;;;5023165;28;20189;-73
2024/01/16 08:21:00;;;;;;;23.53;9.40;;;-0.70;1.00;;;;;;5021083;28;20201;-73
2024/01/16 08:23:26;;;;;;;26.97;10.30;;;-0.20;1.00;;;;;;5020601;28;20186;-76
2024/01/16 08:25:51;;;;;;;19.90;9.70;;;-0.60;1.00;;;;;;5024470;28;20257;-76
2024/01/16 08:28:17;;;;;;;20.37;9.43;;;0.00;1.00;;;;;;5031307;28;20548;-74
2024/01/16 08:30:43;;;;;;;21.87;10.70;;;-0.30;1.00;;;;;;5025601;28;20205;-76
2024/01/16 08:33:09;;;;;;;18.43;9.27;;;-0.10;1.00;;;;;;5027837;28;20501;-74
2024/01/16 08:35:34;;;;;;;26.77;11.77;;;-0.10;1.00;;;;;;5024574;28;20591;-78
2024/01/16 08:38:00;;;;;;;22.60;10.70;;;-0.10;1.00;;;;;;5023578;28;20571;-75
2024/01/16 08:40:26;;;;;;;20.53;10.67;;;0.00;1.00;;;;;;5043024;28;20186;-74
2024/01/16 08:42:54;;;;;;;20.10;9.53;;;0.10;1.00;;;;;;5027993;28;20421;-75
2024/01/16 08:45:20;;;;;;;19.93;9.23;;;0.70;1.00;;;;;;5013828;28;20193;-76
2024/01/16 08:47:46;;;;;;;24.90;11.80;;;0.30;1.00;;;;;;5014564;28;20417;-78
2024/01/16 08:50:12;;;;;;;28.60;15.30;;;0.80;1.00;;;;;;5029180;28;20516;-75
2024/01/16 08:52:37;;;;;;;22.70;12.67;;;0.70;1.00;;;;;;5022182;28;20183;-78
2024/01/16 08:55:03;;;;;;;15.47;9.00;;;0.70;1.00;;;;;;5023697;28;20640;-75
2024/01/16 08:57:29;;;;;;;20.00;10.57;;;0.40;1.00;;;;;;5018643;28;20206;-74
2024/01/16 08:59:55;;;;;;;19.67;10.20;;;0.50;1.00;;;;;;5038376;28;20524;-76
2024/01/16 09:02:20;;;;;;;19.90;8.90;;;0.50;1.00;;;;;;5025994;28;20208;-76
2024/01/16 09:04:47;;;;;;;20.67;9.07;;;1.00;1.00;;;;;;5031992;28;20217;-75
2024/01/16 09:07:15;;;;;;;15.00;8.60;;;1.10;1.00;;;;;;5012405;28;20179;-77
2024/01/16 09:09:42;;;;;;;15.13;7.60;;;1.20;1.00;;;;;;5021454;28;20440;-74
2024/01/16 09:12:10;;;;;;;15.83;8.37;;;1.30;1.00;;;;;;5021795;28;20408;-74
2024/01/16 09:14:36;;;;;;;19.90;8.27;;;0.90;1.00;;;;;;5022511;28;20499;-76
2024/01/16 09:17:03;;;;;;;16.00;8.27;;;1.00;1.00;;;;;;5011787;28;21216;-75
2024/01/16 09:19:29;;;;;;;17.77;8.77;;;1.00;1.00;;;;;;5025416;28;20628;-75
2024/01/16 09:21:55;;;;;;;19.50;9.03;;;1.20;1.00;;;;;;5013882;28;20949;-78
2024/01/16 09:24:20;;;;;;;13.73;7.13;;;1.90;1.00;;;;;;5015760;28;20408;-76
2024/01/16 09:26:46;;;;;;;14.83;7.70;;;1.60;1.00;;;;;;5029967;28;20353;-75
2024/01/16 09:29:12;;;;;;;13.47;6.50;;;1.70;1.00;;;;;;5022543;28;20206;-75
2024/01/16 09:31:38;;;;;;;17.43;8.30;;;1.80;1.00;;;;;;5024890;28;20425;-76
2024/01/16 09:34:04;;;;;;;16.00;7.83;;;1.90;1.00;;;;;;5021229;28;20176;-76
2024/01/16 09:36:30;;;;;;;14.80;8.47;;;2.00;1.00;;;;;;5014479;28;20465;-74
2024/01/16 09:38:55;;;;;;;18.40;9.17;;;2.40;1.00;;;;;;5020643;28;20849;-77
2024/01/16 09:41:21;;;;;;;19.57;8.27;;;2.50;1.00;;;;;;5018879;28;20261;-75
2024/01/16 09:43:47;;;;;;;19.23;7.50;;;2.80;1.00;;;;;;5026206;28;20178;-75
2024/01/16 09:46:16;;;;;;;14.63;7.90;;;3.00;1.00;;;;;;5022686;28;20175;-74
2024/01/16 09:48:44;;;;;;;16.93;8.23;;;3.10;1.00;;;;;;5020181;28;20564;-77
2024/01/16 09:51:14;;;;;;;15.60;7.80;;;3.50;1.00;;;;;;5023517;28;20420;-79
2024/01/16 09:53:41;;;;;;;19.23;8.20;;;3.10;1.00;;;;;;5020799;28;20482;-79
2024/01/16 09:56:13;;;;;;;16.80;7.40;;;3.10;1.00;;;;;;5023474;28;21016;-77
2024/01/16 09:58:39;;;;;;;18.33;8.27;;;3.20;1.00;;;;;;5027569;28;20432;-76
2024/01/16 10:01:05;;;;;;;16.70;7.77;;;3.20;1.00;;;;;;5019796;28;20479;-74
2024/01/16 10:03:34;;;;;;;14.60;7.80;;;3.40;1.00;;;;;;5023120;28;21774;-76
2024/01/16 10:06:03;;;;;;;13.57;7.03;;;2.70;1.00;;;;;;5027910;28;20456;-75
2024/01/16 10:08:31;;;;;;;13.53;7.37;;;2.70;1.00;;;;;;5026480;28;20448;-75
2024/01/16 10:10:57;;;;;;;16.87;8.10;;;2.60;1.00;;;;;;5023568;28;20420;-76
2024/01/16 10:13:23;;;;;;;16.50;7.30;;;2.60;1.00;;;;;;5016190;28;20444;-77
2024/01/16 10:15:52;;;;;;;13.97;7.03;;;2.50;1.00;;;;;;5026584;28;20468;-76
2024/01/16 10:18:26;;;;;;;14.10;7.63;;;2.50;1.00;;;;;;5026187;28;20532;-76
2024/01/16 10:20:55;;;;;;;19.40;7.90;;;;;;;;;;5022175;28;20428;-76
2024/01/16 10:23:24;;;;;;;12.33;7.07;;;2.60;1.00;;;;;;5024797;28;20479;-80
2024/01/16 10:26:09;;;;;;;16.43;8.20;;;2.90;1.00;;;;;;5017389;28;20448;-74
2024/01/16 10:28:35;;;;;;;13.97;7.07;;;2.90;1.00;;;;;;5034308;28;20727;-74
2024/01/16 10:31:20;;;;;;;11.10;6.50;;;3.80;1.00;;;;;;5018825;28;20413;-73
2024/01/16 10:33:46;;;;;;;12.73;7.00;;;2.90;1.00;;;;;;5016001;28;20441;-74
2024/01/16 10:36:13;;;;;;;16.60;7.80;;;2.80;1.00;;;;;;5012700;28;20897;-73
2024/01/16 10:38:40;;;;;;;13.07;6.60;;;2.80;1.00;;;;;;5026914;28;20182;-74
2024/01/16 10:41:10;;;;;;;14.37;7.53;;;2.80;1.00;;;;;;5019065;28;20420;-75
2024/01/16 10:43:35;;;;;;;10.67;6.70;;;3.10;1.00;;;;;;5018353;28;20421;-74
2024/01/16 10:46:15;;;;;;;15.23;7.13;;;5.40;1.00;;;;;;5019471;28;20466;-74
2024/01/16 10:49:01;;;;;;;16.10;7.13;;;3.20;1.00;;;;;;5016136;28;20215;-75
2024/01/16 10:51:28;;;;;;;11.60;7.10;;;3.20;1.00;;;;;;5014383;28;20417;-75
2024/01/16 10:54:16;;;;;;;12.07;6.30;;;3.30;1.00;;;;;;5013958;28;20733;-76
2024/01/16 10:56:48;;;;;;;17.03;6.83;;;3.50;1.00;;;;;;5010849;28;20463;-74
2024/01/16 10:59:25;;;;;;;16.87;7.50;;;3.40;1.00;;;;;;5013220;28;20452;-73
2024/01/16 11:01:55;;;;;;;15.43;7.50;;;4.10;1.00;;;;;;5021424;28;20433;-74
2024/01/16 11:04:21;;;;;;;12.23;6.80;;;4.20;1.00;;;;;;5012680;28;20792;-77
2024/01/16 11:06:54;;;;;;;12.73;6.50;;;4.00;1.00;;;;;;5027739;28;20424;-74
2024/01/16 11:09:20;;;;;;;16.63;8.57;;;4.40;1.00;;;;;;5019504;28;20656;-75
2024/01/16 11:11:47;;;;;;;14.77;7.70;;;4.70;1.00;;;;;;5016746;28;20498;-74
2024/01/16 11:14:13;;;;;;;11.63;6.27;;;4.20;1.00;;;;;;5026561;28;20418;-74
2024/01/16 11:16:39;;;;;;;14.03;7.07;;;4.20;1.00;;;;;;5010371;28;20465;-75
2024/01/16 11:19:08;;;;;;;14.47;8.83;;;2.10;1.00;;;;;;5018058;28;20440;-74
2024/01/16 11:21:34;;;;;;;14.77;6.90;;;4.80;1.00;;;;;;5017244;28;20511;-74
2024/01/16 11:24:00;;;;;;;14.00;7.10;;;5.00;1.00;;;;;;5015175;28;20418;-76
2024/01/16 11:26:27;;;;;;;13.80;7.50;;;4.50;1.00;;;;;;5011411;28;20456;-75
2024/01/16 11:28:56;;;;;;;14.40;6.50;;;2.10;1.00;;;;;;5021985;28;20209;-74
2024/01/16 11:31:32;;;;;;;15.03;7.40;;;4.20;1.00;;;;;;5013255;28;20471;-76
2024/01/16 11:34:01;;;;;;;12.00;6.93;;;4.50;1.00;;;;;;5016740;28;20429;-75
2024/01/16 11:36:54;;;;;;;12.00;7.00;;;5.00;1.00;;;;;;5018767;28;20468;-74
2024/01/16 11:39:22;;;;;;;13.33;7.20;;;5.70;1.00;;;;;;5017846;28;20549;-76
2024/01/16 11:41:51;;;;;;;12.10;6.50;;;6.20;1.00;;;;;;5021229;28;20425;-75
2024/01/16 11:44:40;;;;;;;14.13;6.73;;;6.20;1.00;;;;;;5014550;28;20408;-78
2024/01/16 11:47:06;;;;;;;15.80;6.80;;;6.40;1.00;;;;;;5020442;28;20883;-75
2024/01/16 11:49:32;;;;;;;12.37;6.57;;;6.70;1.00;;;;;;5025210;28;20443;-74
2024/01/16 11:51:58;;;;;;;12.30;6.70;;;7.20;1.00;;;;;;5026075;28;20417;-74
2024/01/16 11:54:24;;;;;;;12.03;6.03;;;7.20;1.00;;;;;;5012372;28;20652;-75
2024/01/16 11:57:04;;;;;;;16.17;7.40;;;7.10;1.00;;;;;;5017170;28;20457;-74
2024/01/16 11:59:57;;;;;;;10.27;5.87;;;6.20;1.00;;;;;;5014110;28;20213;-72
2024/01/16 12:02:29;;;;;;;12.80;6.50;;;6.00;1.00;;;;;;5013514;28;20482;-72
2024/01/16 12:05:02;;;;;;;11.43;6.67;;;5.80;1.00;;;;;;5020557;28;20412;-71
2024/01/16 12:07:28;;;;;;;10.77;5.90;;;6.00;1.00;;;;;;5020430;28;20483;-72
2024/01/16 12:09:59;;;;;;;13.07;6.50;;;7.60;1.00;;;;;;5038886;28;20431;-71
2024/01/16 12:12:25;;;;;;;10.80;6.20;;;6.40;1.00;;;;;;5046259;28;20165;-72
2024/01/16 12:14:53;;;;;;;11.37;6.57;;;7.60;1.00;;;;;;5034458;28;20412;-72
2024/01/16 12:17:20;;;;;;;12.77;6.70;;;9.40;1.00;;;;;;5028515;28;20258;-73
2024/01/16 12:19:46;;;;;;;16.40;6.73;;;14.40;1.00;;;;;;5024566;28;20490;-73
2024/01/16 12:22:16;;;;;;;15.10;6.40;;;13.60;1.00;;;;;;5030988;28;20408;-73
2024/01/16 12:24:42;;;;;;;12.23;6.83;;;15.50;1.00;;;;;;5025446;28;20421;-73
2024/01/16 12:27:08;;;;;;;11.40;7.00;;;16.90;1.00;;;;;;5016656;28;20432;-72
2024/01/16 12:29:34;;;;;;;10.63;6.60;;;17.20;1.00;;;;;;5028450;28;20190;-80
2024/01/16 12:32:14;;;;;;;11.70;6.80;;;17.80;1.00;;;;;;5024204;28;20424;-76
2024/01/16 12:34:49;;;;;;;15.47;7.10;;;17.70;1.00;;;;;;5033987;28;20520;-73
2024/01/16 12:37:15;;;;;;;14.23;8.50;;;17.30;1.00;;;;;;5023890;28;20448;-79
2024/01/16 12:39:41;;;;;;;16.10;9.10;;;18.50;1.00;;;;;;5026977;28;20460;-74
2024/01/16 12:42:09;;;;;;;16.20;9.10;;;18.70;1.00;;;;;;5022295;28;20182;-75
2024/01/16 12:44:36;;;;;;;11.93;7.90;;;18.90;1.00;;;;;;5027977;28;20423;-74
2024/01/16 12:47:01;;;;;;;12.07;7.70;;;15.80;1.00;;;;;;5024626;28;20409;-79
2024/01/16 12:49:27;;;;;;;14.13;8.73;;;15.80;1.00;;;;;;5016789;28;20987;-73